Time;durP1;ratioP1;P1;durP2;ratioP2;P2;SDS_P1;SDS_P2;PMS_P1;PMS_P2;Temp;Humidity;BMP_temperature;BMP_pressure;BME280_temperature;BME280_humidity;BME280_pressure;Samples;Min_cycle;Max_cycle;Signal;HPM_P1;HPM_P2
2021/01/11 00:00:10;;;;;;;7.53;5.40;;;;;10.70;101971.00;;;;5007723;28;20686;-75
2021/01/11 00:02:37;;;;;;;7.88;5.07;;;;;10.70;101968.00;;;;5007731;28;20197;-75
2021/01/11 00:05:05;;;;;;;9.43;5.70;;;;;10.70;101964.00;;;;5007282;28;20243;-75
2021/01/11 00:07:32;;;;;;;8.20;5.18;;;;;10.70;101967.00;;;;5007634;28;20227;-75
2021/01/11 00:10:00;;;;;;;10.82;6.35;;;;;10.70;101962.00;;;;5006924;28;20205;-75
2021/01/11 00:12:26;;;;;;;7.57;5.10;;;;;10.70;101951.00;;;;5008700;28;20229;-75
2021/01/11 00:14:53;;;;;;;8.02;5.13;;;;;10.70;101959.00;;;;5008576;28;20200;-75
2021/01/11 00:17:20;;;;;;;7.78;5.38;;;;;10.70;101952.00;;;;5004609;28;20734;-75
2021/01/11 00:19:46;;;;;;;8.68;5.75;;;;;10.70;101942.00;;;;5000666;28;20197;-75
2021/01/11 00:22:13;;;;;;;10.23;5.47;;;;;10.70;101946.00;;;;5005603;28;20252;-75
2021/01/11 00:24:40;;;;;;;9.25;5.68;;;;;10.70;101940.00;;;;5010717;28;20681;-76
2021/01/11 00:27:07;;;;;;;9.90;6.00;;;;;10.70;101941.00;;;;5011607;28;20200;-75
2021/01/11 00:29:34;;;;;;;8.65;4.95;;;;;10.70;101936.00;;;;5002598;28;20228;-75
2021/01/11 00:32:01;;;;;;;8.73;5.57;;;;;10.70;101932.00;;;;5005476;28;20204;-75
2021/01/11 00:34:28;;;;;;;8.15;5.60;;;;;10.70;101935.00;;;;5006912;28;20208;-75
2021/01/11 00:36:58;;;;;;;10.05;6.13;;;;;10.70;101921.00;;;;5009020;28;20629;-75
2021/01/11 00:39:26;;;;;;;11.55;6.93;;;;;10.60;101928.00;;;;5010760;28;20289;-75
2021/01/11 00:41:57;;;;;;;9.15;6.13;;;;;10.60;101928.00;;;;5007411;28;20243;-75
2021/01/11 00:44:25;;;;;;;10.80;6.90;;;;;10.60;101925.00;;;;5007568;28;20194;-75
2021/01/11 00:46:52;;;;;;;9.85;5.82;;;;;10.60;101920.00;;;;5004073;28;20252;-75
2021/01/11 00:49:18;;;;;;;9.75;6.13;;;;;10.60;101919.00;;;;5001132;28;20579;-75
2021/01/11 00:51:46;;;;;;;10.88;6.65;;;;;10.60;101911.00;;;;5008705;28;20200;-75
2021/01/11 00:54:13;;;;;;;10.25;6.25;;;;;10.60;101911.00;;;;5006673;28;20308;-75
2021/01/11 00:56:39;;;;;;;15.35;6.85;;;;;10.60;101912.00;;;;5010763;28;20193;-75
2021/01/11 00:59:06;;;;;;;10.30;5.97;;;;;10.60;101916.00;;;;5009371;28;20694;-75
2021/01/11 01:01:34;;;;;;;9.90;6.05;;;;;10.60;101922.00;;;;5004065;28;20201;-75
2021/01/11 01:04:00;;;;;;;8.85;6.07;;;;;10.60;101922.00;;;;5009196;28;20599;-75
2021/01/11 01:06:27;;;;;;;10.85;6.57;;;;;10.60;101921.00;;;;5009389;28;20193;-76
2021/01/11 01:08:54;;;;;;;11.68;7.20;;;;;10.60;101930.00;;;;5006350;28;20659;-75
2021/01/11 01:11:21;;;;;;;10.73;6.47;;;;;10.60;101929.00;;;;5010490;28;20201;-75
2021/01/11 01:13:49;;;;;;;9.60;5.80;;;;;10.60;101914.00;;;;5009983;28;20217;-75
2021/01/11 01:16:25;;;;;;;10.77;5.93;;;;;10.60;101917.00;;;;5005592;28;20236;-74
2021/01/11 01:18:53;;;;;;;10.90;6.82;;;;;10.60;101912.00;;;;5002235;28;20671;-75
2021/01/11 01:21:20;;;;;;;11.70;7.03;;;;;10.60;101912.00;;;;5009029;28;20216;-75
2021/01/11 01:23:47;;;;;;;10.68;6.35;;;;;10.60;101912.00;;;;4999987;28;20207;-76
2021/01/11 01:26:13;;;;;;;10.77;6.70;;;;;10.60;101919.00;;;;5006750;28;20217;-75
2021/01/11 01:28:40;;;;;;;9.80;5.90;;;;;10.60;101919.00;;;;5009391;28;20208;-75
2021/01/11 01:31:07;;;;;;;10.68;5.88;;;;;10.60;101918.00;;;;5000569;28;20769;-75
2021/01/11 01:33:34;;;;;;;10.10;6.55;;;;;10.60;101917.00;;;;5006854;28;20229;-75
2021/01/11 01:36:03;;;;;;;12.32;7.68;;;;;10.60;101919.00;;;;5000991;28;20674;-75
2021/01/11 01:38:29;;;;;;;12.20;7.55;;;;;10.60;101914.00;;;;5009919;28;20204;-75
2021/01/11 01:40:56;;;;;;;13.82;7.93;;;;;10.60;101909.00;;;;4996979;28;20206;-75
2021/01/11 01:43:23;;;;;;;15.68;7.80;;;;;10.60;101909.00;;;;5004571;28;20201;-75
2021/01/11 01:45:50;;;;;;;12.70;7.43;;;;;10.60;101904.00;;;;5008683;28;20721;-75
2021/01/11 01:48:17;;;;;;;13.45;7.80;;;;;10.60;101913.00;;;;5011448;28;20297;-75
2021/01/11 01:50:44;;;;;;;10.68;6.63;;;;;10.50;101910.00;;;;4998282;28;20201;-75
2021/01/11 01:53:12;;;;;;;10.88;7.13;;;;;10.50;101909.00;;;;4992088;28;20699;-75
2021/01/11 01:55:38;;;;;;;11.88;7.78;;;;;10.50;101912.00;;;;5009632;28;20193;-75
2021/01/11 01:58:09;;;;;;;11.32;6.63;;;;;10.50;101906.00;;;;5005792;28;20296;-75
2021/01/11 02:00:36;;;;;;;12.50;7.22;;;;;10.50;101915.00;;;;4992290;28;20691;-75
2021/01/11 02:03:02;;;;;;;12.63;7.72;;;;;10.50;101911.00;;;;5007948;28;20213;-75
2021/01/11 02:05:29;;;;;;;10.48;6.78;;;;;10.60;101912.00;;;;5000766;28;20224;-75
2021/01/11 02:08:04;;;;;;;11.80;7.47;;;;;10.50;101910.00;;;;5005172;28;20193;-75
2021/01/11 02:10:46;;;;;;;13.82;8.27;;;;;10.50;101915.00;;;;5009808;28;20196;-75
2021/01/11 02:13:42;;;;;;;14.40;8.57;;;;;10.50;101923.00;;;;5005822;28;20312;-75
2021/01/11 02:16:15;;;;;;;13.15;7.78;;;;;10.50;101911.00;;;;4969969;28;20193;-76
2021/01/11 02:18:50;;;;;;;12.60;7.32;;;;;10.50;101909.00;;;;5008957;28;20624;-75
2021/01/11 02:21:40;;;;;;;15.15;8.45;;;;;10.40;101898.00;;;;5007051;28;20518;-75
2021/01/11 02:24:55;;;;;;;15.00;8.38;;;;;10.40;101905.00;;;;5007378;28;20244;-75
2021/01/11 02:27:34;;;;;;;14.82;9.27;;;;;10.40;101899.00;;;;5008104;28;20185;-75
2021/01/11 02:30:26;;;;;;;18.17;10.95;;;;;10.40;101882.00;;;;4997806;28;20260;-75
2021/01/11 02:32:56;;;;;;;18.10;10.20;;;;;10.40;101878.00;;;;5006112;28;20228;-75
2021/01/11 02:35:25;;;;;;;17.85;10.98;;;;;10.40;101896.00;;;;4995359;28;20243;-75
2021/01/11 02:37:52;;;;;;;16.48;9.90;;;;;10.40;101896.00;;;;5003935;28;20205;-74
2021/01/11 02:40:19;;;;;;;15.77;10.13;;;;;10.40;101886.00;;;;5005575;28;20208;-75
2021/01/11 02:42:46;;;;;;;19.52;11.23;;;;;10.40;101892.00;;;;5000318;28;20206;-75
2021/01/11 02:45:13;;;;;;;20.33;11.68;;;;;10.30;101881.00;;;;4995451;28;20647;-75
2021/01/11 02:47:55;;;;;;;14.57;9.80;;;;;10.30;101880.00;;;;4994641;28;20549;-75
2021/01/11 02:50:25;;;;;;;17.35;10.02;;;;;10.30;101878.00;;;;5004784;28;20579;-76
2021/01/11 02:53:04;;;;;;;15.32;9.55;;;;;10.30;101875.00;;;;5000892;28;20213;-75
2021/01/11 02:55:43;;;;;;;16.85;10.95;;;;;10.30;101874.00;;;;5007759;28;20197;-75
2021/01/11 02:58:15;;;;;;;17.95;11.50;;;;;10.30;101872.00;;;;5002577;28;20247;-75
2021/01/11 03:00:45;;;;;;;18.38;11.25;;;;;10.30;101870.00;;;;5009312;28;20212;-75
2021/01/11 03:03:15;;;;;;;18.83;11.32;;;;;10.30;101877.00;;;;4999969;28;20229;-75
2021/01/11 03:05:42;;;;;;;17.25;10.45;;;;;10.30;101875.00;;;;4997477;28;20215;-75
2021/01/11 03:08:09;;;;;;;20.80;11.13;;;;;10.30;101883.00;;;;5000264;28;20212;-75
2021/01/11 03:10:35;;;;;;;19.80;11.70;;;;;10.20;101877.00;;;;5004432;28;20197;-75
2021/01/11 03:13:02;;;;;;;18.35;11.07;;;;;10.20;101876.00;;;;5000833;28;20577;-75
2021/01/11 03:15:29;;;;;;;20.25;11.80;;;;;10.20;101873.00;;;;5007177;28;20205;-75
2021/01/11 03:17:56;;;;;;;19.92;11.80;;;;;10.20;101865.00;;;;5003890;28;20200;-75
2021/01/11 03:20:23;;;;;;;20.80;11.80;;;;;10.20;101872.00;;;;5007005;28;20558;-75
2021/01/11 03:22:50;;;;;;;20.38;11.90;;;;;10.20;101869.00;;;;5007054;28;20197;-75
2021/01/11 03:25:17;;;;;;;21.52;13.30;;;;;10.20;101863.00;;;;5006000;28;20204;-75
2021/01/11 03:27:43;;;;;;;20.80;12.02;;;;;10.20;101869.00;;;;5002708;28;20201;-75
2021/01/11 03:30:11;;;;;;;20.00;11.40;;;;;10.20;101870.00;;;;4991108;28;20202;-75
2021/01/11 03:32:37;;;;;;;21.38;12.57;;;;;10.20;101856.00;;;;5003992;28;20275;-75
2021/01/11 03:35:06;;;;;;;22.48;13.40;;;;;10.10;101862.00;;;;5003300;28;20198;-74
2021/01/11 03:37:33;;;;;;;23.38;12.13;;;;;10.10;101856.00;;;;4992741;28;20201;-74
2021/01/11 03:40:00;;;;;;;24.80;12.75;;;;;10.10;101851.00;;;;5006325;28;20201;-75
2021/01/11 03:42:26;;;;;;;21.98;12.43;;;;;10.10;101859.00;;;;5005578;28;21049;-74
2021/01/11 03:44:53;;;;;;;23.38;13.43;;;;;10.10;101859.00;;;;5008230;28;20205;-74
2021/01/11 03:47:20;;;;;;;24.60;13.05;;;;;10.10;101852.00;;;;5002605;28;20552;-75
2021/01/11 03:49:47;;;;;;;26.00;13.52;;;;;10.10;101852.00;;;;5004290;28;20244;-75
2021/01/11 03:52:14;;;;;;;23.20;12.63;;;;;10.10;101845.00;;;;5009553;28;20204;-75
2021/01/11 03:54:41;;;;;;;21.50;11.48;;;;;10.10;101845.00;;;;5012187;28;20201;-75
2021/01/11 03:57:08;;;;;;;23.50;11.98;;;;;10.10;101849.00;;;;5010911;28;21045;-74
2021/01/11 03:59:34;;;;;;;21.77;11.85;;;;;10.10;101844.00;;;;5004469;28;20225;-75
2021/01/11 04:02:01;;;;;;;27.63;14.02;;;;;10.10;101847.00;;;;5008339;28;20189;-75
2021/01/11 04:04:28;;;;;;;25.75;12.70;;;;;10.10;101851.00;;;;5009136;28;20221;-75
2021/01/11 04:06:55;;;;;;;28.45;14.50;;;;;10.10;101843.00;;;;5008795;28;20196;-75
2021/01/11 04:09:22;;;;;;;27.98;14.45;;;;;10.10;101847.00;;;;5009955;28;20535;-75
2021/01/11 04:11:49;;;;;;;28.25;13.48;;;;;10.10;101849.00;;;;5004049;28;20978;-75
2021/01/11 04:14:16;;;;;;;27.13;13.60;;;;;10.10;101832.00;;;;5000307;28;20336;-75
2021/01/11 04:16:44;;;;;;;28.85;13.75;;;;;10.10;101835.00;;;;5005087;28;20201;-74
2021/01/11 04:19:11;;;;;;;25.95;13.45;;;;;10.10;101822.00;;;;5011790;28;20193;-75
2021/01/11 04:21:37;;;;;;;24.75;12.15;;;;;10.10;101817.00;;;;5004508;28;20243;-75
2021/01/11 04:24:05;;;;;;;27.73;13.63;;;;;10.00;101815.00;;;;5010408;28;20201;-75
2021/01/11 04:26:32;;;;;;;26.58;12.25;;;;;10.00;101817.00;;;;5002436;28;20202;-74
2021/01/11 04:28:59;;;;;;;32.53;14.52;;;;;10.00;101820.00;;;;5009561;28;20255;-75
2021/01/11 04:31:26;;;;;;;29.10;12.93;;;;;10.00;101813.00;;;;5011006;28;20208;-75
2021/01/11 04:33:53;;;;;;;27.35;12.45;;;;;10.00;101799.00;;;;5007243;28;20251;-75
2021/01/11 04:36:19;;;;;;;27.80;12.57;;;;;10.00;101791.00;;;;5006646;28;20582;-75
2021/01/11 04:38:46;;;;;;;26.80;12.13;;;;;10.00;101791.00;;;;5009974;28;20196;-75
2021/01/11 04:41:13;;;;;;;25.38;12.07;;;;;10.00;101783.00;;;;5002327;28;20192;-75
2021/01/11 04:43:44;;;;;;;25.38;12.13;;;;;9.90;101793.00;;;;5010208;28;20745;-75
2021/01/11 04:46:13;;;;;;;28.48;13.00;;;;;9.90;101794.00;;;;5003983;28;20200;-75
2021/01/11 04:48:40;;;;;;;28.23;12.55;;;;;9.90;101788.00;;;;4994529;28;20201;-75
2021/01/11 04:51:07;;;;;;;34.17;14.75;;;;;9.90;101789.00;;;;5003306;28;20205;-75
2021/01/11 04:53:35;;;;;;;27.48;13.70;;;;;9.90;101796.00;;;;5010371;28;20271;-75
2021/01/11 04:56:03;;;;;;;28.77;13.07;;;;;9.90;101790.00;;;;5004666;28;20223;-75
2021/01/11 04:58:52;;;;;;;26.98;12.68;;;;;9.80;101791.00;;;;5004579;28;20224;-74
2021/01/11 05:01:23;;;;;;;30.67;14.07;;;;;9.90;101794.00;;;;5009499;28;20213;-74
2021/01/11 05:03:51;;;;;;;30.10;13.35;;;;;9.90;101786.00;;;;5006704;28;20213;-75
2021/01/11 05:06:18;;;;;;;32.22;14.57;;;;;9.90;101781.00;;;;5004552;28;20224;-75
2021/01/11 05:08:46;;;;;;;27.77;13.95;;;;;9.90;101778.00;;;;5006167;28;20201;-75
2021/01/11 05:11:13;;;;;;;28.38;13.30;;;;;9.90;101775.00;;;;5008792;28;20201;-75
2021/01/11 05:13:40;;;;;;;26.88;13.10;;;;;9.90;101772.00;;;;5005429;28;20217;-75
2021/01/11 05:16:12;;;;;;;30.63;13.55;;;;;9.90;101769.00;;;;5002947;28;20201;-75
2021/01/11 05:18:39;;;;;;;28.58;13.00;;;;;9.90;101775.00;;;;4994271;28;20201;-75
2021/01/11 05:21:06;;;;;;;31.17;13.35;;;;;9.90;101767.00;;;;4999506;28;20208;-76
2021/01/11 05:23:38;;;;;;;28.25;13.65;;;;;9.90;101771.00;;;;5008477;28;20225;-75
2021/01/11 05:26:14;;;;;;;30.10;13.88;;;;;9.90;101767.00;;;;5007792;28;20208;-75
2021/01/11 05:28:42;;;;;;;28.92;13.98;;;;;9.90;101772.00;;;;5006492;28;20204;-75
2021/01/11 05:31:09;;;;;;;32.53;13.57;;;;;10.00;101764.00;;;;5008410;28;20267;-75
2021/01/11 05:33:53;;;;;;;25.35;12.73;;;;;9.90;101758.00;;;;5005809;28;20279;-74
2021/01/11 05:36:22;;;;;;;35.75;13.93;;;;;10.00;101757.00;;;;4998841;28;20570;-75
2021/01/11 05:38:49;;;;;;;27.33;13.55;;;;;10.00;101763.00;;;;4991819;28;20260;-75
2021/01/11 05:41:18;;;;;;;30.25;13.73;;;;;10.00;101765.00;;;;5003225;28;20655;-75
2021/01/11 05:43:46;;;;;;;30.02;14.07;;;;;10.00;101764.00;;;;5008292;28;20204;-75
2021/01/11 05:46:23;;;;;;;31.15;13.52;;;;;10.00;101771.00;;;;5008595;28;20213;-75
2021/01/11 05:48:58;;;;;;;25.15;13.18;;;;;10.00;101757.00;;;;5010280;28;20208;-76
2021/01/11 05:51:26;;;;;;;29.42;13.25;;;;;10.00;101756.00;;;;5008852;28;20204;-75
2021/01/11 05:53:52;;;;;;;27.75;12.50;;;;;10.10;101764.00;;;;5009471;28;20224;-75
2021/01/11 05:56:19;;;;;;;31.05;15.48;;;;;10.10;101759.00;;;;5008798;28;20693;-75
2021/01/11 05:59:07;;;;;;;27.73;14.55;;;;;10.00;101750.00;;;;5008186;28;20229;-74
2021/01/11 06:01:35;;;;;;;31.70;13.45;;;;;10.10;101751.00;;;;5004657;28;20205;-75
2021/01/11 06:04:03;;;;;;;23.42;11.55;;;;;10.10;101739.00;;;;4992147;28;20213;-75
2021/01/11 06:06:29;;;;;;;24.80;12.85;;;;;10.20;101735.00;;;;5004116;28;20216;-75
2021/01/11 06:08:56;;;;;;;28.63;14.18;;;;;10.20;101738.00;;;;5009094;28;20201;-75
2021/01/11 06:11:25;;;;;;;25.70;12.48;;;;;10.20;101734.00;;;;5008152;28;20201;-75
2021/01/11 06:13:53;;;;;;;24.02;13.65;;;;;10.20;101729.00;;;;4996754;28;20217;-75
2021/01/11 06:16:21;;;;;;;24.90;12.50;;;;;10.20;101736.00;;;;5007139;28;20267;-75
2021/01/11 06:18:50;;;;;;;28.50;13.57;;;;;10.20;101723.00;;;;5006071;28;20204;-75
2021/01/11 06:21:18;;;;;;;20.98;12.07;;;;;10.20;101721.00;;;;5006577;28;20206;-75
2021/01/11 06:23:45;;;;;;;22.67;12.48;;;;;10.20;101722.00;;;;5003236;28;20212;-75
2021/01/11 06:26:31;;;;;;;24.27;14.00;;;;;10.20;101725.00;;;;5004172;28;20193;-75
2021/01/11 06:28:59;;;;;;;23.63;13.45;;;;;10.20;101704.00;;;;4999071;28;20193;-75
2021/01/11 06:31:28;;;;;;;24.58;12.85;;;;;10.30;101688.00;;;;5006476;28;20200;-75
2021/01/11 06:33:55;;;;;;;24.85;13.60;;;;;10.30;101698.00;;;;5001867;28;20228;-76
2021/01/11 06:36:28;;;;;;;19.65;12.75;;;;;10.20;101693.00;;;;5006276;28;20205;-75
2021/01/11 06:38:55;;;;;;;24.05;13.30;;;;;10.30;101707.00;;;;5002859;28;20209;-75
2021/01/11 06:41:27;;;;;;;25.25;13.80;;;;;10.30;101713.00;;;;5004384;28;20196;-75
2021/01/11 06:44:02;;;;;;;21.13;12.35;;;;;10.30;101705.00;;;;5000696;28;20194;-75
2021/01/11 06:46:44;;;;;;;20.70;12.25;;;;;10.20;101693.00;;;;5009664;28;20207;-75
2021/01/11 06:49:25;;;;;;;24.25;13.60;;;;;10.30;101685.00;;;;4990453;28;20664;-75
2021/01/11 06:52:03;;;;;;;18.70;10.77;;;;;10.20;101687.00;;;;4994509;28;20189;-76
2021/01/11 06:54:36;;;;;;;18.30;11.40;;;;;10.30;101677.00;;;;5007908;28;20286;-75
2021/01/11 06:57:13;;;;;;;22.67;12.73;;;;;10.20;101674.00;;;;4996961;28;20553;-75
2021/01/11 06:59:40;;;;;;;22.95;13.02;;;;;10.30;101672.00;;;;5006726;28;20232;-75
2021/01/11 07:02:22;;;;;;;21.77;13.05;;;;;10.20;101664.00;;;;4998408;28;20596;-76
2021/01/11 07:04:49;;;;;;;20.30;11.43;;;;;10.30;101669.00;;;;5006376;28;20259;-75
2021/01/11 07:07:21;;;;;;;19.08;11.07;;;;;10.20;101658.00;;;;5003421;28;20204;-77
2021/01/11 07:09:56;;;;;;;17.67;10.70;;;;;10.20;101656.00;;;;5003607;28;20239;-75
2021/01/11 07:12:23;;;;;;;18.85;11.43;;;;;10.30;101653.00;;;;5001268;28;20226;-75
2021/01/11 07:14:58;;;;;;;23.77;12.60;;;;;10.20;101653.00;;;;4998637;28;20229;-74
2021/01/11 07:17:36;;;;;;;21.95;12.38;;;;;10.20;101645.00;;;;5003101;28;20224;-74
2021/01/11 07:20:05;;;;;;;18.20;10.88;;;;;10.30;101649.00;;;;5004756;28;20204;-73
2021/01/11 07:22:33;;;;;;;21.00;11.57;;;;;10.30;101651.00;;;;5006022;28;20198;-75
2021/01/11 07:25:07;;;;;;;17.67;10.52;;;;;10.20;101646.00;;;;5007705;28;20213;-74
2021/01/11 07:27:34;;;;;;;18.02;11.82;;;;;10.30;101643.00;;;;5005593;28;20200;-74
2021/01/11 07:30:01;;;;;;;18.30;11.55;;;;;10.30;101647.00;;;;5000791;28;20211;-74
2021/01/11 07:32:32;;;;;;;19.67;10.95;;;;;10.30;101647.00;;;;5004685;28;20209;-74
2021/01/11 07:35:02;;;;;;;14.77;9.38;;;;;10.30;101648.00;;;;4997580;28;20247;-74
2021/01/11 07:37:29;;;;;;;16.33;10.20;;;;;10.30;101659.00;;;;5007978;28;20567;-74
2021/01/11 07:40:03;;;;;;;18.42;11.10;;;;;10.30;101671.00;;;;4995057;28;20212;-74
2021/01/11 07:42:30;;;;;;;15.88;10.35;;;;;10.30;101674.00;;;;5008593;28;20250;-73
2021/01/11 07:45:04;;;;;;;16.02;10.82;;;;;10.30;101677.00;;;;4998745;28;20205;-74
2021/01/11 07:47:30;;;;;;;17.13;10.48;;;;;10.30;101662.00;;;;5007505;28;20208;-75
2021/01/11 07:49:57;;;;;;;16.20;10.20;;;;;10.30;101660.00;;;;4998066;28;20354;-74
2021/01/11 07:52:25;;;;;;;16.27;9.75;;;;;10.30;101654.00;;;;5004877;28;20212;-75
2021/01/11 07:54:58;;;;;;;18.00;10.95;;;;;10.30;101643.00;;;;5001359;28;20655;-74
2021/01/11 07:57:27;;;;;;;15.85;9.75;;;;;10.30;101644.00;;;;5008159;28;20554;-75
2021/01/11 08:00:01;;;;;;;15.55;9.50;;;;;10.30;101648.00;;;;5001257;28;20225;-75
2021/01/11 08:02:29;;;;;;;14.55;9.57;;;;;10.40;101639.00;;;;5002348;28;20215;-74
2021/01/11 08:04:56;;;;;;;14.25;9.80;;;;;10.40;101639.00;;;;5005686;28;20224;-74
2021/01/11 08:07:28;;;;;;;18.15;10.80;;;;;10.30;101636.00;;;;5008219;28;20655;-74
2021/01/11 08:09:57;;;;;;;13.65;8.88;;;;;10.40;101630.00;;;;5001665;28;20200;-75
2021/01/11 08:12:26;;;;;;;14.95;9.30;;;;;10.40;101633.00;;;;4999015;28;20259;-75
2021/01/11 08:15:01;;;;;;;13.02;9.02;;;;;10.30;101639.00;;;;5005139;28;20231;-74
2021/01/11 08:17:30;;;;;;;14.90;8.55;;;;;10.40;101641.00;;;;5007470;28;20204;-74
2021/01/11 08:19:58;;;;;;;14.20;8.73;;;;;10.40;101650.00;;;;5002524;28;20670;-74
2021/01/11 08:22:26;;;;;;;14.07;8.70;;;;;10.40;101652.00;;;;5005450;28;20886;-75
2021/01/11 08:24:54;;;;;;;15.20;9.32;;;;;10.40;101653.00;;;;5003131;28;20213;-74
2021/01/11 08:27:28;;;;;;;13.50;8.77;;;;;10.40;101652.00;;;;5003293;28;20260;-74
2021/01/11 08:29:56;;;;;;;15.77;8.63;;;;;10.40;101650.00;;;;4998527;28;20736;-74
2021/01/11 08:32:23;;;;;;;14.55;8.88;;;;;10.40;101646.00;;;;5006328;28;20655;-74
2021/01/11 08:34:50;;;;;;;15.35;9.07;;;;;10.40;101652.00;;;;5009735;28;20237;-74
2021/01/11 08:37:31;;;;;;;14.73;9.15;;;;;10.40;101643.00;;;;5010182;28;20767;-74
2021/01/11 08:39:59;;;;;;;15.23;9.55;;;;;10.40;101645.00;;;;5004319;28;20202;-74
2021/01/11 08:42:28;;;;;;;14.88;9.05;;;;;10.40;101641.00;;;;5005639;28;20263;-74
2021/01/11 08:44:56;;;;;;;15.70;8.68;;;;;10.40;101638.00;;;;5009073;28;20216;-75
2021/01/11 08:47:26;;;;;;;16.67;8.90;;;;;10.50;101636.00;;;;5009621;28;21035;-74
2021/01/11 08:49:57;;;;;;;12.88;8.85;;;;;10.50;101628.00;;;;5006409;28;20228;-74
2021/01/11 08:52:29;;;;;;;12.98;8.38;;;;;10.50;101632.00;;;;5006128;28;20201;-74
2021/01/11 08:54:56;;;;;;;14.60;9.13;;;;;10.50;101633.00;;;;5004383;28;20224;-75
2021/01/11 08:57:27;;;;;;;13.90;9.15;;;;;10.50;101635.00;;;;5009105;28;20201;-75
2021/01/11 08:59:55;;;;;;;15.57;9.55;;;;;10.50;101642.00;;;;5005136;28;20648;-74
2021/01/11 09:02:23;;;;;;;16.02;10.57;;;;;10.50;101631.00;;;;5010216;28;20627;-75
2021/01/11 09:04:50;;;;;;;15.25;10.23;;;;;10.50;101629.00;;;;5007667;28;20622;-75
2021/01/11 09:07:29;;;;;;;15.23;8.98;;;;;10.50;101628.00;;;;5008696;28;20208;-75
2021/01/11 09:09:56;;;;;;;12.13;7.55;;;;;10.60;101618.00;;;;5010025;28;20192;-75
2021/01/11 09:12:31;;;;;;;13.18;8.80;;;;;10.50;101622.00;;;;5007688;28;20193;-75
2021/01/11 09:15:00;;;;;;;16.23;9.32;;;;;10.60;101618.00;;;;5007709;28;20232;-74
2021/01/11 09:17:29;;;;;;;16.45;10.75;;;;;10.60;101623.00;;;;5005241;28;20256;-74
2021/01/11 09:20:00;;;;;;;14.40;9.25;;;;;10.60;101630.00;;;;5008762;28;20216;-74
2021/01/11 09:22:33;;;;;;;13.52;9.15;;;;;10.60;101627.00;;;;5004515;28;20286;-75
2021/01/11 09:25:01;;;;;;;14.10;10.02;;;;;10.60;101625.00;;;;5007050;28;20193;-74
2021/01/11 09:27:28;;;;;;;13.52;9.00;;;;;10.60;101629.00;;;;5000570;28;20294;-74
2021/01/11 09:29:54;;;;;;;12.70;8.70;;;;;10.60;101631.00;;;;5007971;28;20205;-74
2021/01/11 09:32:22;;;;;;;13.50;9.35;;;;;10.70;101631.00;;;;5006443;28;20196;-73
2021/01/11 09:34:50;;;;;;;13.15;8.43;;;;;10.70;101636.00;;;;5001410;28;20229;-74
2021/01/11 09:37:16;;;;;;;11.93;7.88;;;;;10.70;101635.00;;;;5009648;28;20204;-74
2021/01/11 09:39:43;;;;;;;13.23;8.77;;;;;10.70;101627.00;;;;4998936;28;20232;-74
2021/01/11 09:42:10;;;;;;;11.20;7.80;;;;;10.70;101638.00;;;;5007412;28;20212;-75
2021/01/11 09:44:37;;;;;;;12.38;8.48;;;;;10.70;101633.00;;;;4999942;28;20205;-74
2021/01/11 09:47:05;;;;;;;12.88;8.18;;;;;10.70;101641.00;;;;5005570;28;20600;-75
2021/01/11 09:49:33;;;;;;;12.20;8.13;;;;;10.70;101637.00;;;;5000976;28;20642;-74
2021/01/11 09:52:00;;;;;;;13.82;8.13;;;;;10.70;101632.00;;;;5005450;28;20243;-76
2021/01/11 09:54:27;;;;;;;11.30;8.05;;;;;10.80;101636.00;;;;5008422;28;20701;-76
2021/01/11 09:56:57;;;;;;;11.48;7.80;;;;;10.80;101636.00;;;;5007876;28;20197;-75
2021/01/11 09:59:23;;;;;;;9.75;6.63;;;;;10.80;101641.00;;;;5008670;28;20706;-75
2021/01/11 10:01:51;;;;;;;11.60;7.75;;;;;10.80;101634.00;;;;4998020;28;20198;-76
2021/01/11 10:04:19;;;;;;;12.18;7.43;;;;;10.80;101642.00;;;;5003571;28;20221;-75
2021/01/11 10:06:47;;;;;;;11.63;7.32;;;;;10.80;101646.00;;;;5008664;28;20193;-75
2021/01/11 10:09:16;;;;;;;11.90;7.72;;;;;10.80;101630.00;;;;5005116;28;20201;-75
2021/01/11 10:11:45;;;;;;;11.75;7.78;;;;;10.80;101629.00;;;;5006986;28;20741;-76
2021/01/11 10:14:12;;;;;;;10.93;7.65;;;;;10.80;101627.00;;;;5004080;28;20279;-75
2021/01/11 10:16:40;;;;;;;11.25;6.47;;;;;10.90;101620.00;;;;5006614;28;20228;-75
2021/01/11 10:19:07;;;;;;;8.77;6.68;;;;;10.90;101619.00;;;;5007701;28;20231;-74
2021/01/11 10:21:34;;;;;;;9.15;6.45;;;;;10.90;101616.00;;;;4995462;28;20679;-74
2021/01/11 10:24:01;;;;;;;10.27;7.40;;;;;10.90;101615.00;;;;5005265;28;20208;-75
2021/01/11 10:26:28;;;;;;;9.55;7.22;;;;;11.00;101616.00;;;;5006677;28;20213;-75
2021/01/11 10:28:55;;;;;;;8.18;5.82;;;;;11.00;101613.00;;;;5007503;28;20659;-76
2021/01/11 10:31:22;;;;;;;9.38;7.00;;;;;11.00;101605.00;;;;5007086;28;20205;-76
2021/01/11 10:33:49;;;;;;;9.57;6.68;;;;;11.00;101605.00;;;;5008808;28;20596;-78
2021/01/11 10:36:16;;;;;;;9.40;6.35;;;;;11.00;101599.00;;;;5007794;28;20208;-78
2021/01/11 10:38:44;;;;;;;8.20;5.90;;;;;11.00;101594.00;;;;5006063;28;20680;-77
2021/01/11 10:41:17;;;;;;;9.63;6.47;;;;;11.00;101582.00;;;;5003971;28;20205;-80
2021/01/11 10:43:44;;;;;;;10.60;6.82;;;;;11.10;101588.00;;;;5003187;28;20801;-77
2021/01/11 10:46:12;;;;;;;9.40;6.60;;;;;11.10;101585.00;;;;4998505;28;20259;-79
2021/01/11 10:48:40;;;;;;;9.90;5.85;;;;;11.10;101577.00;;;;5003704;28;20589;-78
2021/01/11 10:51:10;;;;;;;7.78;5.75;;;;;11.10;101574.00;;;;5004265;28;20205;-78
2021/01/11 10:53:38;;;;;;;8.85;6.35;;;;;11.10;101572.00;;;;5004583;28;20217;-79
2021/01/11 10:56:06;;;;;;;8.65;6.15;;;;;11.20;101568.00;;;;5008652;28;20765;-77
2021/01/11 10:58:34;;;;;;;8.48;6.38;;;;;11.20;101563.00;;;;5007216;28;20783;-76
2021/01/11 11:01:01;;;;;;;8.43;5.30;;;;;11.20;101551.00;;;;5007659;28;20189;-76
2021/01/11 11:03:27;;;;;;;8.90;5.97;;;;;11.30;101545.00;;;;5009041;28;20270;-76
2021/01/11 11:05:54;;;;;;;6.70;5.45;;;;;11.30;101547.00;;;;5003129;28;20201;-77
2021/01/11 11:08:21;;;;;;;8.02;6.00;;;;;11.30;101540.00;;;;5008024;28;20200;-77
2021/01/11 11:10:48;;;;;;;8.05;5.50;;;;;11.30;101523.00;;;;5006655;28;20200;-77
2021/01/11 11:13:15;;;;;;;6.93;5.28;;;;;11.30;101529.00;;;;5001674;28;20196;-76
2021/01/11 11:15:45;;;;;;;6.63;4.70;;;;;11.40;101520.00;;;;5003154;28;20200;-77
2021/01/11 11:18:12;;;;;;;6.68;5.05;;;;;11.40;101529.00;;;;5007975;28;20209;-76
2021/01/11 11:20:40;;;;;;;7.45;5.03;;;;;11.40;101517.00;;;;5001319;28;20204;-78
2021/01/11 11:23:07;;;;;;;7.38;5.68;;;;;11.40;101515.00;;;;5005795;28;20197;-76
2021/01/11 11:25:34;;;;;;;7.43;5.28;;;;;11.50;101504.00;;;;5003828;28;20205;-77
2021/01/11 11:28:01;;;;;;;6.55;5.28;;;;;11.50;101504.00;;;;5005050;28;20208;-77
2021/01/11 11:30:28;;;;;;;6.50;5.18;;;;;11.60;101500.00;;;;5006081;28;20208;-79
2021/01/11 11:32:56;;;;;;;7.50;4.88;;;;;11.60;101497.00;;;;5005966;28;20205;-79
2021/01/11 11:35:23;;;;;;;5.72;4.30;;;;;11.60;101501.00;;;;5003263;28;20228;-78
2021/01/11 11:37:50;;;;;;;6.90;4.65;;;;;11.60;101491.00;;;;5005537;28;20205;-78
2021/01/11 11:40:18;;;;;;;6.30;4.43;;;;;11.60;101485.00;;;;5002842;28;20785;-78
2021/01/11 11:42:45;;;;;;;7.72;4.82;;;;;11.70;101475.00;;;;5005650;28;20197;-77
2021/01/11 11:45:14;;;;;;;6.82;4.90;;;;;11.70;101475.00;;;;5006440;28;20205;-78
2021/01/11 11:47:41;;;;;;;8.57;4.82;;;;;11.70;101476.00;;;;5006434;28;20197;-79
2021/01/11 11:50:11;;;;;;;5.95;4.57;;;;;11.70;101483.00;;;;5005953;28;20667;-78
2021/01/11 11:52:38;;;;;;;5.93;3.80;;;;;11.70;101462.00;;;;5006911;28;20628;-78
2021/01/11 11:55:07;;;;;;;8.43;4.90;;;;;11.70;101451.00;;;;5005435;28;20233;-77
2021/01/11 11:57:34;;;;;;;5.95;4.32;;;;;11.70;101445.00;;;;5005609;28;20196;-78
2021/01/11 12:00:01;;;;;;;5.93;4.30;;;;;11.80;101440.00;;;;5005723;28;20698;-78
2021/01/11 12:02:28;;;;;;;8.07;4.45;;;;;11.80;101439.00;;;;5007351;28;20197;-77
2021/01/11 12:04:55;;;;;;;5.25;4.20;;;;;11.80;101435.00;;;;5003406;28;20220;-78
2021/01/11 12:07:23;;;;;;;7.03;4.10;;;;;11.80;101423.00;;;;5000446;28;20213;-78